This is the latest recevied weather packets stored in our database for station/object SP2JGY-2. If no packets are shown the sender has not sent any weather packets the latest 10 day(s).
| Time | Temp. | Humidity | Pressure | Rain* | Wind** | Luminosity | Snow |
|---|---|---|---|---|---|---|---|
| 1777276409 | 9.44° C | 36% | 1023.3 hPa | - | - | - | - |
| 1777275509 | 8.89° C | 37% | 1023.3 hPa | - | - | - | - |
| 1777274609 | 8.89° C | 41% | 1023.3 hPa | - | - | - | - |
| 1777273709 | 8.33° C | 42% | 1023.4 hPa | - | - | - | - |
| 1777272809 | 7.78° C | 49% | 1023.3 hPa | - | - | - | - |
| 1777271909 | 7.22° C | 54% | 1023.4 hPa | - | - | - | - |
| 1777271008 | 6.67° C | 57% | 1023.4 hPa | - | - | - | - |
| 1777270108 | 6.11° C | 60% | 1023.4 hPa | - | - | - | - |
| 1777269208 | 5.56° C | 64% | 1023.4 hPa | - | - | - | - |
| 1777268308 | 5° C | 65% | 1023.3 hPa | - | - | - | - |
| 1777267408 | 4.44° C | 67% | 1023.3 hPa | - | - | - | - |
| 1777266508 | 3.89° C | 68% | 1023.3 hPa | - | - | - | - |
| 1777265607 | 3.33° C | 70% | 1023.2 hPa | - | - | - | - |
| 1777264707 | 2.78° C | 71% | 1023.2 hPa | - | - | - | - |
| 1777263807 | 2.22° C | 71% | 1023.1 hPa | - | - | - | - |
| 1777262907 | 2.22° C | 72% | 1023 hPa | - | - | - | - |
| 1777262007 | 1.67° C | 72% | 1023 hPa | - | - | - | - |
| 1777261107 | 1.67° C | 72% | 1023 hPa | - | - | - | - |
| 1777260206 | 1.67° C | 71% | 1022.9 hPa | - | - | - | - |
| 1777259306 | 1.67° C | 70% | 1022.7 hPa | - | - | - | - |
| 1777258406 | 1.67° C | 69% | 1022.8 hPa | - | - | - | - |
| 1777257506 | 1.67° C | 69% | 1022.9 hPa | - | - | - | - |
| 1777256606 | 1.67° C | 68% | 1022.8 hPa | - | - | - | - |
| 1777255706 | 2.22° C | 67% | 1022.8 hPa | - | - | - | - |
| 1777254805 | 2.22° C | 68% | 1022.8 hPa | - | - | - | - |
* Rain since midnight (hover to see other rain measurements)
** Current wind speed in m/s (hover to see current wind gust speed)